Latest Weather Observations for Yanakie

IDV60801

Issued at 11:02 am EST Sunday 19 April 2015 (issued every 30 minutes, with the page automatically refreshed every 10 minutes)

About weather observations | Map of weather stations | Latest weather observations for VIC | Other Formats
Station Details ID: 085301 Name: YANAKIE Lat: -38.81 Lon: 146.19 Height: 13.3 m
Data from the previous 72 hours. | See also: Recent months at Yanakie
Date/Time
EST
Temp
°C
App
Temp
°C
Dew
Point
Rel
Hum
%
Delta-T
°C
Wind Press
QNH
hPa
Press
MSL
hPa
Rain
since 9 am
mm
Dir
 
Spd
km/h
Gust
km/h
Spd
kts
Gust
kts
19/11:00am 14.7 7.7 6.0 56 4.1 SSW 32 44 17 24 1026.4 1026.4 0.0
19/10:30am 14.7 7.8 6.5 58 3.9 SSW 32 46 17 25 1025.9 1025.9 0.0
19/10:00am 14.6 8.7 7.4 62 3.5 SSW 28 39 15 21 1025.5 1025.5 0.0
19/09:48am 13.9 6.6 7.0 63 3.4 SSW 35 56 19 30 1025.4 1025.4 0.0
19/09:30am 13.0 5.6 6.8 66 3.0 SSW 35 44 19 24 1025.0 1025.0 0.0
19/09:00am 12.7 6.3 7.0 68 2.7 SSW 30 43 16 23 1024.4 1024.4 6.0
19/08:30am 11.8 4.9 7.3 74 2.2 SSW 33 44 18 24 1023.6 1023.6 -
19/08:00am 11.5 4.9 7.8 78 1.8 SSW 32 48 17 26 1022.8 1022.8 -
19/07:30am 10.9 4.4 8.1 83 1.4 SW 32 43 17 23 1022.0 1022.0 -
19/07:00am 10.1 4.7 7.9 86 1.1 WSW 26 35 14 19 1021.3 1021.3 -
19/06:30am 9.7 3.8 7.5 86 1.0 W 28 35 15 19 1020.7 1020.7 -
19/06:01am 10.0 3.5 6.7 80 1.5 SSW 30 48 16 26 1020.2 1020.2 -
19/06:00am 10.0 3.2 6.7 80 1.5 SSW 32 48 17 26 1020.2 1020.2 -
19/05:30am 10.2 4.3 7.3 82 1.4 SSW 28 35 15 19 1019.5 1019.5 -
19/05:00am 10.0 3.1 7.3 83 1.3 SW 33 44 18 24 1019.0 1019.0 -
19/04:34am 11.2 4.3 7.3 77 1.9 SW 33 54 18 29 1018.5 1018.5 -
19/04:30am 11.3 3.6 7.2 76 2.0 SW 37 48 20 26 1018.3 1018.3 -
19/04:19am 12.3 5.5 7.6 73 2.3 SW 33 54 18 29 1018.1 1018.1 -
19/04:00am 12.0 5.2 7.5 74 2.2 WSW 33 48 18 26 1017.7 1017.7 -
19/03:30am 11.8 5.0 6.9 72 2.3 WSW 32 43 17 23 1017.3 1017.3 -
19/03:12am 11.7 5.4 7.2 74 2.2 WSW 30 48 16 26 1017.1 1017.1 -
19/03:00am 11.8 4.9 7.1 73 2.2 WSW 33 44 18 24 1016.9 1016.9 3.0
19/02:30am 12.0 5.2 6.9 71 2.4 WSW 32 44 17 24 1016.8 1016.8 -
19/02:00am 12.2 6.2 8.5 78 1.8 WSW 30 43 16 23 1016.7 1016.7 -
19/01:30am 11.7 7.5 9.8 88 1.0 WSW 22 30 12 16 1016.6 1016.6 -
19/01:00am 10.9 6.7 9.7 92 0.6 W 22 43 12 23 1016.6 1016.6 -
19/12:59am 10.8 6.9 9.6 92 0.6 W 20 43 11 23 1016.6 1016.6 -
19/12:30am 10.6 7.7 9.7 94 0.5 NW 15 20 8 11 1016.4 1016.4 -
19/12:00am 10.9 8.1 10.0 94 0.5 NW 15 22 8 12 1016.1 1016.1 -
 
Date/Time
EST
Temp
°C
App
Temp
°C
Dew
Point
Rel
Hum
%
Delta-T
°C
Wind Press
QNH
hPa
Press
MSL
hPa
Rain
since 9 am
mm
Dir
 
Spd
km/h
Gust
km/h
Spd
kts
Gust
kts
18/11:30pm 10.9 8.1 10.0 94 0.5 WNW 15 22 8 12 1016.3 1016.3 -
18/11:00pm 11.1 9.5 10.2 94 0.5 WNW 9 13 5 7 1015.9 1015.9 -
18/10:30pm 11.2 8.4 10.1 93 0.6 WNW 15 20 8 11 1016.0 1016.0 -
18/10:00pm 11.5 8.1 10.4 93 0.6 W 19 24 10 13 1015.7 1015.7 -
18/09:30pm 11.4 7.9 10.3 93 0.6 WSW 19 26 10 14 1015.3 1015.3 -
18/09:00pm 11.6 7.2 10.5 93 0.6 WSW 24 32 13 17 1014.8 1014.8 1.0
18/08:30pm 11.4 5.8 10.1 92 0.7 WSW 30 43 16 23 1014.6 1014.6 -
18/08:00pm 11.9 7.8 10.1 89 0.9 W 22 32 12 17 1013.9 1013.9 -
18/07:30pm 12.9 7.0 10.3 84 1.3 WSW 32 56 17 30 1013.4 1013.4 -
18/07:00pm 13.9 7.5 10.7 81 1.7 SW 35 46 19 25 1012.7 1012.7 -
18/06:30pm 15.3 9.8 10.7 74 2.4 WSW 30 50 16 27 1011.9 1011.9 -
18/06:26pm 16.3 13.4 11.0 71 2.8 W 17 50 9 27 1011.6 1011.6 -
18/06:00pm 16.1 14.9 10.2 68 3.1 NW 7 7 4 4 1010.5 1010.5 -
18/05:30pm 16.5 14.1 9.9 65 3.5 NNW 13 15 7 8 1010.3 1010.3 -
18/05:00pm 17.1 13.8 9.5 61 4.0 NW 17 24 9 13 1010.1 1010.1 -
18/04:30pm 17.4 13.5 9.6 60 4.1 NW 20 26 11 14 1010.0 1010.0 -
18/04:00pm 18.4 13.7 9.2 55 4.8 NW 24 37 13 20 1009.9 1009.9 -
18/03:30pm 18.6 13.9 9.1 54 5.0 WNW 24 32 13 17 1010.0 1010.0 -
18/03:00pm 18.1 14.1 9.2 56 4.7 WNW 20 30 11 16 1010.1 1010.1 0.0
18/02:30pm 16.7 11.4 9.9 64 3.6 WNW 28 39 15 21 1010.4 1010.4 -
18/02:00pm 17.6 13.4 11.2 66 3.5 WNW 24 33 13 18 1010.5 1010.5 -
18/01:30pm 17.9 13.6 12.1 69 3.2 WNW 26 37 14 20 1010.7 1010.7 -
18/01:00pm 17.5 13.6 12.2 71 2.9 WNW 24 35 13 19 1011.0 1011.0 -
18/12:30pm 16.3 12.0 12.1 76 2.3 W 26 33 14 18 1011.5 1011.5 0.0
18/12:00pm 16.8 13.5 12.7 77 2.3 WNW 22 35 12 19 1012.0 1012.0 0.0
18/11:30am 16.5 13.2 12.7 78 2.1 WNW 22 33 12 18 1012.1 1012.1 0.0
18/11:00am 15.9 13.3 13.9 88 1.1 WNW 20 26 11 14 1012.3 1012.3 0.0
18/10:30am 14.9 12.2 13.6 92 0.7 WNW 20 26 11 14 1012.6 1012.6 0.0
18/10:00am 14.7 12.2 13.6 93 0.6 NW 19 24 10 13 1012.9 1012.9 0.0
18/09:30am 14.5 12.8 13.7 95 0.4 NW 15 20 8 11 1013.1 1013.1 0.0
18/09:00am 14.2 12.9 13.6 96 0.3 NW 13 19 7 10 1012.8 1012.8 3.0
18/08:30am 14.2 12.9 13.6 96 0.3 NW 13 19 7 10 1012.7 1012.7 -
18/08:00am 13.7 11.9 13.2 97 0.3 NW 15 20 8 11 1013.0 1013.0 -
18/07:30am 13.5 12.4 13.0 97 0.3 NW 11 15 6 8 1012.6 1012.6 -
18/07:00am 13.2 12.0 12.7 97 0.3 NW 11 13 6 7 1012.1 1012.1 -
18/06:30am 13.3 11.7 12.8 97 0.3 NW 13 15 7 8 1012.1 1012.1 -
18/06:00am 13.4 12.2 12.9 97 0.3 NW 11 19 6 10 1012.1 1012.1 -
18/05:30am 13.3 13.0 12.8 97 0.3 NW 6 7 3 4 1011.7 1011.7 -
18/05:00am 13.1 12.2 12.6 97 0.3 NNW 9 11 5 6 1011.7 1011.7 -
18/04:30am 12.8 12.7 12.2 96 0.3 N 4 6 2 3 1011.3 1011.3 -
18/04:00am 12.9 13.2 12.3 96 0.3 NNW 2 6 1 3 1011.7 1011.7 -
18/03:30am 12.8 13.5 12.2 96 0.3 CALM 0 0 0 0 1011.6 1011.6 -
18/03:00am 12.9 13.2 12.1 95 0.4 NNW 2 6 1 3 1012.1 1012.1 2.0
18/02:30am 12.8 13.4 12.0 95 0.4 CALM 0 0 0 0 1012.1 1012.1 -
18/02:00am 12.8 13.4 12.0 95 0.4 CALM 0 0 0 0 1012.5 1012.5 -
18/01:30am 12.7 13.3 11.9 95 0.4 CALM 0 0 0 0 1013.2 1013.2 -
18/01:00am 13.0 13.7 12.2 95 0.4 CALM 0 0 0 0 1013.6 1013.6 -
18/12:30am 13.0 13.7 12.2 95 0.4 CALM 0 4 0 2 1013.8 1013.8 -
18/12:00am 13.1 12.5 12.2 94 0.5 SW 7 9 4 5 1014.0 1014.0 -
 
Date/Time
EST
Temp
°C
App
Temp
°C
Dew
Point
Rel
Hum
%
Delta-T
°C
Wind Press
QNH
hPa
Press
MSL
hPa
Rain
since 9 am
mm
Dir
 
Spd
km/h
Gust
km/h
Spd
kts
Gust
kts
17/11:30pm 13.4 13.4 12.5 94 0.5 SW 4 6 2 3 1014.6 1014.6 -
17/11:00pm 13.4 13.0 12.5 94 0.5 SW 6 6 3 3 1014.9 1014.9 -
17/10:30pm 13.5 14.3 12.4 93 0.6 CALM 0 0 0 0 1015.3 1015.3 -
17/10:00pm 13.6 14.4 12.5 93 0.6 CALM 0 0 0 0 1015.4 1015.4 -
17/09:30pm 13.7 13.8 12.6 93 0.6 N 4 7 2 4 1015.5 1015.5 -
17/09:00pm 14.0 14.9 12.9 93 0.6 CALM 0 0 0 0 1016.0 1016.0 -
17/08:30pm 14.2 14.7 12.9 92 0.7 N 2 4 1 2 1016.1 1016.1 -
17/08:00pm 14.2 13.4 12.9 92 0.7 NNE 9 13 5 7 1016.0 1016.0 -
17/07:30pm 14.2 13.4 12.8 91 0.8 NE 9 13 5 7 1016.2 1016.2 -
17/07:00pm 14.2 13.7 12.6 90 0.9 ENE 7 9 4 5 1017.0 1017.0 -
17/06:30pm 14.3 13.0 12.5 89 1.0 ENE 11 15 6 8 1017.2 1017.2 -
17/06:00pm 14.4 13.8 12.3 87 1.1 E 7 13 4 7 1017.1 1017.1 -
17/05:30pm 14.7 13.9 11.8 83 1.6 E 7 9 4 5 1017.6 1017.6 -
17/05:00pm 15.3 14.5 11.1 76 2.2 E 6 9 3 5 1017.6 1017.6 -
17/04:30pm 15.5 14.1 10.9 74 2.4 E 9 13 5 7 1017.4 1017.4 -
17/04:00pm 16.0 14.5 10.7 71 2.8 E 9 13 5 7 1017.5 1017.5 -
17/03:30pm 16.4 14.4 10.3 67 3.2 ESE 11 15 6 8 1017.7 1017.7 -
17/03:00pm 16.6 14.6 10.0 65 3.5 ENE 11 17 6 9 1017.9 1017.9 -
17/01:30pm 17.0 - 8.9 59 4.2 - - - - - 1019.3 1019.3 -
17/12:30pm 17.8 15.9 9.2 57 4.5 ENE 9 15 5 8 1020.4 1020.4 -
17/12:00pm 17.6 15.5 9.8 60 4.1 ENE 11 17 6 9 1021.3 1021.3 0.0
17/11:30am 16.3 14.1 9.5 64 3.5 NE 11 15 6 8 1022.1 1022.1 0.0
17/11:00am 15.9 13.6 8.9 63 3.6 NE 11 17 6 9 1022.8 1022.8 0.0
17/10:30am 16.0 14.6 9.4 65 3.4 NE 7 13 4 7 1023.4 1023.4 0.0
17/10:00am 16.0 14.3 9.9 67 3.2 NE 9 11 5 6 1023.9 1023.9 0.0
17/09:30am 14.9 14.1 10.9 77 2.1 N 6 7 3 4 1024.3 1024.3 0.0
17/09:00am 13.9 13.1 11.8 87 1.1 NNE 7 11 4 6 1024.6 1024.6 -
17/08:30am 12.0 11.1 10.7 92 0.7 NE 6 6 3 3 1024.5 1024.5 -
17/08:00am 10.5 9.6 9.4 93 0.5 NE 4 6 2 3 1024.4 1024.4 -
17/07:30am 8.6 7.2 7.4 92 0.6 NE 4 6 2 3 1024.2 1024.2 -
17/07:00am 7.7 5.8 6.5 92 0.5 ENE 6 7 3 4 1023.8 1023.8 -
17/06:30am 8.1 6.2 6.9 92 0.6 NNE 6 7 3 4 1023.8 1023.8 -
17/06:00am 7.7 6.5 6.5 92 0.5 NNW 2 4 1 2 1023.8 1023.8 -
17/05:30am 7.3 6.4 5.9 91 0.6 CALM 0 0 0 0 1023.8 1023.8 -
17/05:00am 7.5 6.6 6.1 91 0.6 CALM 0 0 0 0 1023.8 1023.8 -
17/04:30am 7.2 6.2 5.5 89 0.8 CALM 0 0 0 0 1023.4 1023.4 -
17/04:00am 7.6 6.7 5.9 89 0.8 CALM 0 0 0 0 1023.2 1023.2 -
17/03:30am 8.1 7.2 6.2 88 0.9 CALM 0 0 0 0 1023.3 1023.3 -
17/03:00am 7.9 7.0 5.9 87 0.9 CALM 0 0 0 0 1023.5 1023.5 0.0
17/02:30am 8.2 7.2 5.8 85 1.1 CALM 0 0 0 0 1024.0 1024.0 -
17/02:00am 9.3 7.2 6.7 84 1.2 NNW 7 9 4 5 1024.4 1024.4 -
17/01:30am 10.0 7.7 7.3 83 1.3 NNW 9 11 5 6 1024.7 1024.7 -
17/01:00am 10.4 7.6 7.1 80 1.6 NW 11 13 6 7 1025.0 1025.0 -
17/12:30am 11.6 9.4 7.9 78 1.8 WNW 9 11 5 6 1025.4 1025.4 -
17/12:00am 12.3 10.7 8.6 78 1.8 WNW 7 11 4 6 1025.6 1025.6 -
 
Date/Time
EST
Temp
°C
App
Temp
°C
Dew
Point
Rel
Hum
%
Delta-T
°C
Wind Press
QNH
hPa
Press
MSL
hPa
Rain
since 9 am
mm
Dir
 
Spd
km/h
Gust
km/h
Spd
kts
Gust
kts
16/11:30pm 11.7 10.0 8.4 80 1.6 WNW 7 9 4 5 1025.8 1025.8 -
16/11:00pm 11.8 10.1 8.5 80 1.6 NW 7 9 4 5 1025.8 1025.8 -
16/10:30pm 11.0 8.8 7.7 80 1.6 WNW 9 11 5 6 1025.9 1025.9 -
16/10:00pm 11.6 10.0 7.9 78 1.8 NW 6 9 3 5 1025.9 1025.9 -
16/09:30pm 11.9 10.1 8.0 77 1.9 NNW 7 9 4 5 1026.0 1026.0 -
16/09:00pm 11.8 10.0 7.9 77 1.9 WNW 7 11 4 6 1025.8 1025.8 0.0
16/08:30pm 11.5 9.6 7.4 76 2.0 WNW 7 11 4 6 1025.9 1025.9 -
16/08:00pm 11.2 9.2 7.3 77 1.9 WNW 7 9 4 5 1025.3 1025.3 -
16/07:30pm 11.0 8.5 6.7 75 2.0 WNW 9 13 5 7 1025.0 1025.0 -
16/07:00pm 12.1 9.4 7.4 73 2.3 W 11 15 6 8 1025.0 1025.0 -
16/06:30pm 12.9 9.9 7.6 70 2.6 W 13 17 7 9 1025.2 1025.2 -
16/06:00pm 13.0 9.1 7.2 68 2.8 W 17 20 9 11 1025.0 1025.0 -
16/05:30pm 13.4 9.1 7.0 65 3.1 WSW 19 22 10 12 1024.9 1024.9 -
16/05:00pm 14.5 10.2 7.8 64 3.3 WSW 20 26 11 14 1024.8 1024.8 -
16/04:30pm 14.5 10.1 7.3 62 3.5 W 20 28 11 15 1024.5 1024.5 -
16/04:00pm 15.0 9.8 7.3 60 3.8 WSW 24 32 13 17 1024.3 1024.3 -
16/03:30pm 16.4 11.3 7.6 56 4.4 SW 24 32 13 17 1024.4 1024.4 -
16/03:00pm 16.9 11.3 8.6 58 4.2 SW 28 37 15 20 1024.2 1024.2 -
16/02:30pm 16.9 12.2 9.1 60 4.0 SW 24 32 13 17 1024.0 1024.0 -
16/02:00pm 18.1 13.6 10.0 59 4.3 SW 24 33 13 18 1023.9 1023.9 -
16/01:30pm 18.7 13.5 10.3 58 4.5 SW 28 37 15 20 1024.0 1024.0 -
16/01:00pm 18.8 13.9 9.8 56 4.8 SW 26 35 14 19 1024.0 1024.0 -
16/12:30pm 18.8 13.6 10.4 58 4.5 SW 28 37 15 20 1024.0 1024.0 -
16/12:00pm 18.4 13.4 9.7 57 4.6 WSW 26 33 14 18 1024.1 1024.1 -
16/11:30am 18.0 12.6 9.4 57 4.5 WSW 28 35 15 19 1024.3 1024.3 -

Other Formats:

Comma delimited format used in spreadsheet applications
http://www.bom.gov.au/fwo/IDV60801/IDV60801.94911.axf

JavaScript Object Notation format (JSON) in row-major order
http://www.bom.gov.au/fwo/IDV60801/IDV60801.94911.json